Terminal Aerodrome Forecast
Issued by NWS North Platte, NE

Home | Current Version | Previous Version | Graphics & Text | Print | Product List | Glossary On
Versions: 1 2 3 4 5 6 7 8 9 10 11 12 13 14 15 16 17 18 19 20 21
000
FTUS43 KLBF 271700
TAFVTN
TAF
KVTN 271726Z 2718/2818 12007KT P6SM VCSH SCT015 BKN050
     FM280100 11008KT 2SM +TSRA SCT015 BKN030CB
     FM280500 34006KT P6SM VCSH SCT015 BKN030
     FM280800 01008KT P6SM BKN050=

USA.gov is the U.S. government's official web portal to all federal, state and local government web resources and services.